createdAt,value
2022-10-23T00:01:15.697Z,77.60
2022-10-23T00:03:45.998Z,77.02
2022-10-23T00:06:15.972Z,77.15
2022-10-23T00:08:44.097Z,76.72
2022-10-23T00:11:14.083Z,76.85
2022-10-23T00:13:42.949Z,76.69
2022-10-23T00:16:11.494Z,77.05
2022-10-23T00:18:40.311Z,77.20
2022-10-23T00:21:12.337Z,77.32
2022-10-23T00:23:41.020Z,76.97
2022-10-23T00:26:11.265Z,77.24
2022-10-23T00:28:40.046Z,77.37
2022-10-23T00:31:08.344Z,77.56
2022-10-23T00:33:36.764Z,77.38
2022-10-23T00:36:07.109Z,77.25
2022-10-23T00:38:37.490Z,77.27
2022-10-23T00:41:07.127Z,76.75
2022-10-23T00:43:37.350Z,76.98
2022-10-23T00:46:06.052Z,76.87
2022-10-23T00:48:34.430Z,77.49
2022-10-23T00:51:02.790Z,76.64
2022-10-23T00:53:31.233Z,77.29
2022-10-23T00:56:01.438Z,77.57
2022-10-23T00:58:30.124Z,77.69
2022-10-23T01:00:58.801Z,78.32
2022-10-23T01:03:29.253Z,78.46
2022-10-23T01:06:04.989Z,78.22
2022-10-23T01:08:39.816Z,78.12
2022-10-23T01:11:15.961Z,77.93
2022-10-23T01:13:52.982Z,78.66
2022-10-23T01:16:28.039Z,78.71
2022-10-23T01:19:05.222Z,78.62
2022-10-23T01:21:49.782Z,78.27
2022-10-23T01:24:29.012Z,79.25
2022-10-23T01:27:13.811Z,79.91
2022-10-23T01:29:46.668Z,80.93
2022-10-23T01:32:19.438Z,80.92
2022-10-23T01:34:53.158Z,82.22
2022-10-23T01:37:27.518Z,82.06
2022-10-23T01:40:01.013Z,82.69
2022-10-23T01:42:35.033Z,82.75
2022-10-23T01:45:08.893Z,82.92
2022-10-23T01:47:37.774Z,82.68
2022-10-23T01:50:09.440Z,82.99
2022-10-23T01:52:38.888Z,83.69
2022-10-23T01:55:11.609Z,83.32
2022-10-23T01:57:43.458Z,84.46
2022-10-23T02:00:15.361Z,85.00
2022-10-23T02:02:46.509Z,85.56
2022-10-23T02:05:19.322Z,86.64
2022-10-23T02:07:47.935Z,86.97
2022-10-23T02:10:17.203Z,86.99
2022-10-23T02:12:53.398Z,86.85
2022-10-23T02:15:30.389Z,86.25
2022-10-23T02:18:09.775Z,88.20
2022-10-23T02:20:41.549Z,87.03
2022-10-23T02:23:19.002Z,87.57
2022-10-23T02:25:55.045Z,86.96
2022-10-23T02:28:29.113Z,86.75
2022-10-23T02:31:00.598Z,86.39
2022-10-23T02:33:30.492Z,86.49
2022-10-23T02:35:58.882Z,85.42
2022-10-23T02:38:36.203Z,83.46
2022-10-23T02:41:35.366Z,83.19
2022-10-23T02:44:27.462Z,84.55
2022-10-23T02:47:08.083Z,83.00
2022-10-23T02:49:43.419Z,83.10
2022-10-23T02:52:16.218Z,82.45
2022-10-23T02:54:57.058Z,81.92
2022-10-23T02:57:31.600Z,80.47
2022-10-23T03:00:07.036Z,81.52
2022-10-23T03:02:41.721Z,80.93
2022-10-23T03:05:15.247Z,81.77
2022-10-23T03:07:44.210Z,82.05
2022-10-23T03:10:12.984Z,82.04
2022-10-23T03:12:41.754Z,82.40
2022-10-23T03:15:13.509Z,80.17
2022-10-23T03:17:42.475Z,81.54
2022-10-23T03:20:11.870Z,81.35
2022-10-23T03:22:40.512Z,79.90
2022-10-23T03:25:09.661Z,81.29
2022-10-23T03:27:38.025Z,79.96
2022-10-23T03:30:08.014Z,80.54
2022-10-23T03:32:37.545Z,81.00
2022-10-23T03:35:06.525Z,81.18
2022-10-23T03:37:34.617Z,80.67
2022-10-23T03:40:02.889Z,79.81
2022-10-23T03:42:31.072Z,80.16
2022-10-23T03:44:59.134Z,76.43
2022-10-23T03:47:27.382Z,78.72
2022-10-23T03:49:56.905Z,79.46
2022-10-23T03:54:58.057Z,78.79
2022-10-23T03:57:26.757Z,78.45
2022-10-23T03:59:54.770Z,78.85
2022-10-23T04:02:23.391Z,77.94
2022-10-23T04:04:51.506Z,76.22
2022-10-23T04:07:21.229Z,77.62
2022-10-23T04:09:49.282Z,76.38
2022-10-23T04:12:18.209Z,76.60
2022-10-23T04:14:46.603Z,76.83
2022-10-23T04:17:14.702Z,77.76
2022-10-23T04:19:43.051Z,78.01
2022-10-23T04:22:11.207Z,77.97
2022-10-23T04:24:45.458Z,78.06
2022-10-23T04:27:14.017Z,78.50
2022-10-23T04:29:42.121Z,78.61
2022-10-23T04:32:10.214Z,78.73
2022-10-23T04:34:38.237Z,78.96
2022-10-23T04:37:06.292Z,77.33
2022-10-23T04:39:34.334Z,78.88
2022-10-23T04:42:03.758Z,78.74
2022-10-23T04:44:31.962Z,79.11
2022-10-23T04:46:59.925Z,80.76
2022-10-23T04:49:28.086Z,81.13
2022-10-23T04:51:56.376Z,79.25
2022-10-23T04:54:24.668Z,80.08
2022-10-23T04:56:52.774Z,80.56
2022-10-23T04:59:22.220Z,80.88
2022-10-23T05:01:50.673Z,81.60
2022-10-23T05:04:18.809Z,81.59
2022-10-23T05:06:46.859Z,83.17
2022-10-23T05:09:14.838Z,83.75
2022-10-23T05:11:42.879Z,83.44
2022-10-23T05:14:10.830Z,83.63
2022-10-23T05:16:47.854Z,85.33
2022-10-23T05:19:23.373Z,84.30
2022-10-23T05:21:56.061Z,85.38
2022-10-23T05:24:24.420Z,84.64
2022-10-23T05:26:53.155Z,83.94
2022-10-23T05:29:21.524Z,85.31
2022-10-23T05:31:54.063Z,86.18
2022-10-23T05:34:25.709Z,85.71
2022-10-23T05:36:54.723Z,85.78
2022-10-23T05:39:23.058Z,84.48
2022-10-23T05:41:51.409Z,86.11
2022-10-23T05:44:19.489Z,85.18
2022-10-23T05:46:48.024Z,84.68
2022-10-23T05:49:17.760Z,83.87
2022-10-23T05:51:45.865Z,84.43
2022-10-23T05:54:13.773Z,83.45
2022-10-23T05:56:42.774Z,83.85
2022-10-23T05:59:11.630Z,84.95
2022-10-23T06:01:39.737Z,85.10
2022-10-23T06:04:08.094Z,82.39
2022-10-23T06:06:37.890Z,84.87
2022-10-23T06:09:06.803Z,82.98
2022-10-23T06:11:34.994Z,82.61
2022-10-23T06:14:03.079Z,81.93
2022-10-23T06:16:31.131Z,82.35
2022-10-23T06:18:59.921Z,82.32
2022-10-23T06:21:28.352Z,81.97
2022-10-23T06:23:57.980Z,79.13
2022-10-23T06:26:26.132Z,79.85
2022-10-23T06:28:54.215Z,82.44
2022-10-23T06:31:26.823Z,83.06
2022-10-23T06:33:55.064Z,81.26
2022-10-23T06:36:23.356Z,80.51
2022-10-23T06:38:52.296Z,78.60
2022-10-23T06:41:23.354Z,79.98
2022-10-23T06:43:52.889Z,77.62
2022-10-23T06:46:21.465Z,79.17
2022-10-23T06:48:49.719Z,79.56
2022-10-23T06:51:18.829Z,79.27
2022-10-23T06:53:47.546Z,77.21
2022-10-23T06:56:16.058Z,78.95
2022-10-23T06:58:45.507Z,77.69
2022-10-23T07:01:16.505Z,75.39
2022-10-23T07:03:45.081Z,74.88
2022-10-23T07:06:13.172Z,74.37
2022-10-23T07:08:41.343Z,74.74
2022-10-23T07:11:10.921Z,73.78
2022-10-23T07:13:40.663Z,74.80
2022-10-23T07:16:18.038Z,76.79
2022-10-23T07:18:46.899Z,74.06
2022-10-23T07:21:15.001Z,72.02
2022-10-23T07:23:43.189Z,72.08
2022-10-23T07:26:14.526Z,71.90
2022-10-23T07:28:43.368Z,71.03
2022-10-23T07:31:11.872Z,70.63
2022-10-23T07:33:41.400Z,70.48
2022-10-23T07:36:10.857Z,70.51
2022-10-23T07:38:39.023Z,68.92
2022-10-23T07:41:10.174Z,69.67
2022-10-23T07:43:40.773Z,68.20
2022-10-23T07:46:10.090Z,67.94
2022-10-23T07:48:38.709Z,67.41
2022-10-23T07:51:12.399Z,65.12
2022-10-23T07:53:41.381Z,64.69
2022-10-23T07:56:15.444Z,65.48
2022-10-23T07:58:43.895Z,63.96
2022-10-23T08:01:19.484Z,65.28
2022-10-23T08:03:48.303Z,65.50
2022-10-23T08:06:18.028Z,62.52
2022-10-23T08:11:25.134Z,61.71
2022-10-23T08:13:53.914Z,61.93
2022-10-23T08:16:22.548Z,59.63
2022-10-23T08:18:50.934Z,61.12
2022-10-23T08:21:20.819Z,62.70
2022-10-23T08:23:49.076Z,61.32
2022-10-23T08:26:17.209Z,60.60
2022-10-23T08:28:45.324Z,62.31
2022-10-23T08:31:15.679Z,59.84
2022-10-23T08:33:44.211Z,60.76
2022-10-23T08:36:18.718Z,57.83
2022-10-23T08:38:49.261Z,56.61
2022-10-23T08:41:27.106Z,57.44
2022-10-23T08:44:02.890Z,58.74
2022-10-23T08:46:35.689Z,58.83
2022-10-23T08:49:30.022Z,58.38
2022-10-23T08:52:00.282Z,59.38
2022-10-23T08:54:40.931Z,58.83
2022-10-23T08:57:14.931Z,57.87
2022-10-23T08:59:49.054Z,55.25
2022-10-23T09:02:22.867Z,55.02
2022-10-23T09:04:53.657Z,54.96
2022-10-23T09:07:29.797Z,54.30
2022-10-23T09:10:10.278Z,57.79
2022-10-23T09:12:39.685Z,55.14
2022-10-23T09:15:25.473Z,56.05
2022-10-23T09:17:59.253Z,55.09
2022-10-23T09:20:30.895Z,53.08
2022-10-23T09:23:02.202Z,52.34
2022-10-23T09:25:35.466Z,52.58
2022-10-23T09:28:05.595Z,52.50
2022-10-23T09:30:35.965Z,52.45
2022-10-23T09:33:16.357Z,51.62
2022-10-23T09:35:55.721Z,53.68
2022-10-23T09:38:29.716Z,53.49
2022-10-23T09:41:02.162Z,53.09
2022-10-23T09:43:30.479Z,53.67
2022-10-23T09:46:00.191Z,52.16
2022-10-23T09:48:29.228Z,51.89
2022-10-23T09:50:59.745Z,50.52
2022-10-23T09:53:33.344Z,50.47
2022-10-23T09:56:03.875Z,48.58
2022-10-23T09:58:35.608Z,51.65
2022-10-23T10:01:04.759Z,50.22
2022-10-23T10:03:33.068Z,50.04
2022-10-23T10:06:03.657Z,50.37
2022-10-23T10:08:39.101Z,51.02
2022-10-23T10:11:14.096Z,50.74
2022-10-23T10:14:32.635Z,52.50
2022-10-23T10:17:04.803Z,52.99
2022-10-23T10:19:48.174Z,52.55
2022-10-23T10:22:28.355Z,51.04
2022-10-23T10:25:03.212Z,50.98
2022-10-23T10:27:47.143Z,53.20
2022-10-23T10:30:17.119Z,51.06
2022-10-23T10:32:52.299Z,51.74
2022-10-23T10:35:41.612Z,51.19
2022-10-23T10:38:39.589Z,48.38
2022-10-23T10:41:35.730Z,47.65
2022-10-23T10:44:21.670Z,47.96
2022-10-23T10:46:57.679Z,46.99
2022-10-23T10:49:31.178Z,48.86
2022-10-23T10:52:11.093Z,48.42
2022-10-23T10:54:50.042Z,48.21
2022-10-23T10:57:30.108Z,47.39
2022-10-23T11:00:05.607Z,47.17
2022-10-23T11:02:39.573Z,48.03
2022-10-23T11:05:19.205Z,45.55
2022-10-23T11:07:56.728Z,46.63
2022-10-23T11:10:24.762Z,46.23
2022-10-23T11:12:53.450Z,46.47
2022-10-23T11:15:27.565Z,46.40
2022-10-23T11:18:00.146Z,46.64
2022-10-23T11:20:48.949Z,47.67
2022-10-23T11:23:46.346Z,44.82
2022-10-23T11:26:27.022Z,43.22
2022-10-23T11:29:12.097Z,46.88
2022-10-23T11:31:53.201Z,48.36
2022-10-23T11:34:41.274Z,42.97
2022-10-23T11:37:09.596Z,43.84
2022-10-23T11:39:40.679Z,43.08
2022-10-23T11:42:16.550Z,43.65
2022-10-23T11:44:46.886Z,43.37
2022-10-23T11:47:44.455Z,45.28
2022-10-23T11:50:25.882Z,46.11
2022-10-23T11:53:13.071Z,46.86
2022-10-23T11:55:42.264Z,45.75
2022-10-23T11:58:44.465Z,44.94
2022-10-23T12:01:29.679Z,44.45
2022-10-23T12:04:03.985Z,42.21
2022-10-23T12:06:39.435Z,43.16
2022-10-23T12:09:20.230Z,43.39
2022-10-23T12:11:51.701Z,43.85
2022-10-23T12:14:35.785Z,46.00
2022-10-23T12:17:04.605Z,45.54
2022-10-23T12:19:49.524Z,45.00
2022-10-23T12:22:20.258Z,45.43
2022-10-23T12:25:02.027Z,46.11
2022-10-23T12:27:37.686Z,44.54
2022-10-23T12:30:18.906Z,45.15
2022-10-23T12:33:15.778Z,46.63
2022-10-23T12:36:08.357Z,47.53
2022-10-23T12:38:45.151Z,46.79
2022-10-23T12:41:16.567Z,47.96
2022-10-23T12:43:47.543Z,47.70
2022-10-23T12:46:31.460Z,48.07
2022-10-23T12:49:00.003Z,48.48
2022-10-23T12:51:31.395Z,48.29
2022-10-23T12:54:00.310Z,49.31
2022-10-23T12:56:35.456Z,49.84
2022-10-23T12:59:04.415Z,49.50
2022-10-23T13:01:35.482Z,48.99
2022-10-23T13:04:09.756Z,48.11
2022-10-23T13:06:40.612Z,48.31
2022-10-23T13:09:21.391Z,49.76
2022-10-23T13:11:49.931Z,49.55
2022-10-23T13:14:32.424Z,49.79
2022-10-23T13:17:02.447Z,48.68
2022-10-23T13:19:30.683Z,50.03
2022-10-23T13:22:01.808Z,50.48
2022-10-23T13:24:31.803Z,50.35
2022-10-23T13:27:00.370Z,50.49
2022-10-23T13:29:32.446Z,50.78
2022-10-23T13:32:11.529Z,49.22
2022-10-23T13:34:40.340Z,50.67
2022-10-23T13:37:26.410Z,50.73
2022-10-23T13:40:01.500Z,50.37
2022-10-23T13:42:29.736Z,50.38
2022-10-23T13:44:57.926Z,51.24
2022-10-23T13:47:26.310Z,52.13
2022-10-23T13:49:54.404Z,52.30
2022-10-23T13:52:25.010Z,51.49
2022-10-23T13:54:54.657Z,51.28
2022-10-23T13:57:23.157Z,51.29
2022-10-23T13:59:51.411Z,52.36
2022-10-23T14:02:23.043Z,52.11
2022-10-23T14:04:52.461Z,52.08
2022-10-23T14:07:20.916Z,52.04
2022-10-23T14:09:50.602Z,53.13
2022-10-23T14:12:20.417Z,53.59
2022-10-23T14:14:52.966Z,54.03
2022-10-23T14:17:21.450Z,53.55
2022-10-23T14:19:50.318Z,53.21
2022-10-23T14:22:18.663Z,52.99
2022-10-23T14:24:46.978Z,53.40
2022-10-23T14:27:15.039Z,52.78
2022-10-23T14:29:44.678Z,53.03
2022-10-23T14:32:12.928Z,52.96
2022-10-23T14:34:43.918Z,52.75
2022-10-23T14:37:11.983Z,53.28
2022-10-23T14:39:40.122Z,54.77
2022-10-23T14:42:08.304Z,53.43
2022-10-23T14:44:36.373Z,53.94
2022-10-23T14:47:06.431Z,53.71
2022-10-23T14:49:35.791Z,54.90
2022-10-23T14:52:03.883Z,54.16
2022-10-23T14:54:34.706Z,54.04
2022-10-23T14:57:02.900Z,53.35
2022-10-23T14:59:31.312Z,52.55
2022-10-23T15:01:59.580Z,52.07
2022-10-23T15:04:29.113Z,52.73
2022-10-23T15:06:57.750Z,53.13
2022-10-23T15:09:26.198Z,53.78
2022-10-23T15:11:54.594Z,53.87
2022-10-23T15:14:22.686Z,55.34
2022-10-23T15:16:50.763Z,55.89
2022-10-23T15:19:19.247Z,57.21
2022-10-23T15:21:49.682Z,57.24
2022-10-23T15:24:18.657Z,57.72
2022-10-23T15:26:47.007Z,57.89
2022-10-23T15:29:16.072Z,59.35
2022-10-23T15:31:51.353Z,60.59
2022-10-23T15:34:22.314Z,60.72
2022-10-23T15:36:53.150Z,61.71
2022-10-23T15:39:23.234Z,61.86
2022-10-23T15:41:53.287Z,62.61
2022-10-23T15:44:23.154Z,63.00
2022-10-23T15:46:52.362Z,64.25
2022-10-23T15:49:22.063Z,64.16
2022-10-23T15:51:52.746Z,64.06
2022-10-23T15:54:21.513Z,64.16
2022-10-23T15:56:50.995Z,63.64
2022-10-23T15:59:21.119Z,63.67
2022-10-23T16:01:49.638Z,64.19
2022-10-23T16:04:18.104Z,64.14
2022-10-23T16:06:46.706Z,64.69
2022-10-23T16:09:16.991Z,64.99
2022-10-23T16:11:45.968Z,65.97
2022-10-23T16:14:16.271Z,65.24
2022-10-23T16:16:44.548Z,65.25
2022-10-23T16:19:13.194Z,66.90
2022-10-23T16:21:42.731Z,67.83
2022-10-23T16:24:11.832Z,68.33
2022-10-23T16:26:41.738Z,69.20
2022-10-23T16:29:11.010Z,70.78
2022-10-23T16:31:39.150Z,72.55
2022-10-23T16:34:08.048Z,72.69
2022-10-23T16:36:39.202Z,74.07
2022-10-23T16:39:08.911Z,74.78
2022-10-23T16:41:37.191Z,74.93
2022-10-23T16:44:07.782Z,75.01
2022-10-23T16:46:36.544Z,74.49
2022-10-23T16:49:05.170Z,74.18
2022-10-23T16:51:34.681Z,74.45
2022-10-23T16:54:03.259Z,74.33
2022-10-23T16:56:31.477Z,74.22
2022-10-23T16:59:00.843Z,74.71
2022-10-23T17:01:32.431Z,75.04
2022-10-23T17:04:00.883Z,75.66
2022-10-23T17:06:32.183Z,75.94
2022-10-23T17:09:02.146Z,76.17
2022-10-23T17:11:31.641Z,76.61
2022-10-23T17:14:02.207Z,75.73
2022-10-23T17:16:35.153Z,75.52
2022-10-23T17:19:08.379Z,76.15
2022-10-23T17:21:42.037Z,75.42
2022-10-23T17:24:10.690Z,75.40
2022-10-23T17:26:38.707Z,75.05
2022-10-23T17:29:10.347Z,76.58
2022-10-23T17:31:41.824Z,76.57
2022-10-23T17:34:13.070Z,76.33
2022-10-23T17:36:43.502Z,76.59
2022-10-23T17:39:14.665Z,75.70
2022-10-23T17:41:43.218Z,75.77
2022-10-23T17:44:12.414Z,75.73
2022-10-23T17:46:42.149Z,76.63
2022-10-23T17:49:11.965Z,77.40
2022-10-23T17:51:40.390Z,76.94
2022-10-23T17:54:10.516Z,77.85
2022-10-23T17:56:41.161Z,78.03
2022-10-23T17:59:13.100Z,78.03
2022-10-23T18:01:44.077Z,77.88
2022-10-23T18:04:12.242Z,78.66
2022-10-23T18:06:44.151Z,78.19
2022-10-23T18:09:13.792Z,78.11
2022-10-23T18:11:47.085Z,78.07
2022-10-23T18:14:17.343Z,77.99
2022-10-23T18:16:47.247Z,77.79
2022-10-23T18:19:16.024Z,77.98
2022-10-23T18:21:44.353Z,77.56
2022-10-23T18:24:13.111Z,76.87
2022-10-23T18:26:43.168Z,75.28
2022-10-23T18:29:17.583Z,73.89
2022-10-23T18:31:48.864Z,73.79
2022-10-23T18:34:19.618Z,73.37
2022-10-23T18:36:48.578Z,73.29
2022-10-23T18:39:22.311Z,72.92
2022-10-23T18:41:51.102Z,73.60
2022-10-23T18:44:22.161Z,73.60
2022-10-23T18:46:52.617Z,73.36
2022-10-23T18:49:21.578Z,72.68
2022-10-23T18:51:51.318Z,72.44
2022-10-23T18:54:21.424Z,72.17
2022-10-23T18:56:50.437Z,70.77
2022-10-23T18:59:21.629Z,70.89
2022-10-23T19:01:52.429Z,70.62
2022-10-23T19:04:20.710Z,70.34
2022-10-23T19:06:50.718Z,70.87
2022-10-23T19:09:22.412Z,71.56
2022-10-23T19:11:50.666Z,71.88
2022-10-23T19:14:18.754Z,72.33
2022-10-23T19:16:58.537Z,72.48
2022-10-23T19:19:29.906Z,72.43
2022-10-23T19:21:58.396Z,72.74
2022-10-23T19:24:31.749Z,72.94
2022-10-23T19:27:03.079Z,73.44
2022-10-23T19:29:32.029Z,73.46
2022-10-23T19:32:02.010Z,73.69
2022-10-23T19:34:30.483Z,73.94
2022-10-23T19:36:58.658Z,73.77
2022-10-23T19:39:27.076Z,73.42
2022-10-23T19:41:55.866Z,74.24
2022-10-23T19:44:24.102Z,73.92
2022-10-23T19:46:52.582Z,74.24
2022-10-23T19:49:24.032Z,74.59
2022-10-23T19:51:52.266Z,74.50
2022-10-23T19:54:21.139Z,74.57
2022-10-23T19:56:49.422Z,74.44
2022-10-23T19:59:18.236Z,74.43
2022-10-23T20:01:48.861Z,74.44
2022-10-23T20:04:17.576Z,74.80
2022-10-23T20:06:48.535Z,74.79
2022-10-23T20:09:17.045Z,75.08
2022-10-23T20:11:45.538Z,75.80
2022-10-23T20:14:14.801Z,75.62
2022-10-23T20:16:45.272Z,76.12
2022-10-23T20:21:50.922Z,75.53
2022-10-23T20:24:21.735Z,75.92
2022-10-23T20:26:52.296Z,75.96
2022-10-23T20:29:20.810Z,75.90
2022-10-23T20:31:49.405Z,76.52
2022-10-23T20:34:17.623Z,77.44
2022-10-23T20:36:48.289Z,76.78
2022-10-23T20:39:20.898Z,76.98
2022-10-23T20:41:49.322Z,76.39
2022-10-23T20:44:19.209Z,75.68
2022-10-23T20:46:47.474Z,76.00
2022-10-23T20:49:16.658Z,78.02
2022-10-23T20:51:44.941Z,80.04
2022-10-23T20:54:13.061Z,79.24
2022-10-23T20:56:42.746Z,78.86
2022-10-23T20:59:13.446Z,77.27
2022-10-23T21:01:42.742Z,76.57
2022-10-23T21:04:13.241Z,76.46
2022-10-23T21:06:57.763Z,78.41
2022-10-23T21:09:31.203Z,78.72
2022-10-23T21:12:01.239Z,80.68
2022-10-23T21:14:30.599Z,80.60
2022-10-23T21:16:58.869Z,80.22
2022-10-23T21:19:27.377Z,79.85
2022-10-23T21:21:55.680Z,79.90
2022-10-23T21:24:24.274Z,79.59
2022-10-23T21:26:52.438Z,79.49
2022-10-23T21:29:22.247Z,79.94
2022-10-23T21:31:55.252Z,79.44
2022-10-23T21:34:23.532Z,79.36
2022-10-23T21:39:39.733Z,79.88
2022-10-23T21:42:07.963Z,80.50
2022-10-23T21:44:37.641Z,80.87
2022-10-23T21:47:06.312Z,81.03
2022-10-23T21:49:34.400Z,80.73
2022-10-23T21:52:02.576Z,80.72
2022-10-23T21:54:30.730Z,81.22
2022-10-23T21:56:58.800Z,81.30
2022-10-23T21:59:30.343Z,81.25
2022-10-23T22:02:01.877Z,81.51
2022-10-23T22:04:30.056Z,81.76
2022-10-23T22:06:58.485Z,82.03
2022-10-23T22:09:26.586Z,81.65
2022-10-23T22:11:55.628Z,81.64
2022-10-23T22:14:24.469Z,82.04
2022-10-23T22:16:53.434Z,82.16
2022-10-23T22:19:24.030Z,81.59
2022-10-23T22:21:52.289Z,81.70
2022-10-23T22:24:21.083Z,82.55
2022-10-23T22:26:51.306Z,84.50
2022-10-23T22:29:22.168Z,83.46
2022-10-23T22:31:50.677Z,83.28
2022-10-23T22:34:34.905Z,83.36
2022-10-23T22:37:13.319Z,83.51
2022-10-23T22:39:41.809Z,83.42
2022-10-23T22:42:10.409Z,81.93
2022-10-23T22:44:38.902Z,80.65
2022-10-23T22:47:07.251Z,81.64
2022-10-23T22:49:35.638Z,82.25
2022-10-23T22:52:03.990Z,82.73
2022-10-23T22:54:34.118Z,83.57
2022-10-23T22:57:02.478Z,83.57
2022-10-23T22:59:30.922Z,82.89
2022-10-23T23:01:59.396Z,83.06
2022-10-23T23:04:43.298Z,84.04
2022-10-23T23:07:14.154Z,85.43
2022-10-23T23:09:45.370Z,86.16
2022-10-23T23:12:15.422Z,85.08
2022-10-23T23:14:44.366Z,84.45
2022-10-23T23:17:13.093Z,84.36
2022-10-23T23:19:41.494Z,85.06
2022-10-23T23:22:09.705Z,84.09
2022-10-23T23:24:38.416Z,84.80
2022-10-23T23:27:08.068Z,84.12
2022-10-23T23:29:36.439Z,84.83
2022-10-23T23:32:06.396Z,85.51
2022-10-23T23:34:34.587Z,85.95
2022-10-23T23:37:02.786Z,86.69
2022-10-23T23:39:30.843Z,87.11
2022-10-23T23:41:58.901Z,87.19
2022-10-23T23:44:28.505Z,87.08
2022-10-23T23:46:56.594Z,87.40
2022-10-23T23:49:24.750Z,87.73
2022-10-23T23:51:52.860Z,88.39
2022-10-23T23:54:20.938Z,89.27
2022-10-23T23:56:49.101Z,90.95
2022-10-23T23:59:17.138Z,90.56
